sensor_id;sensor_type;location;lat;lon;timestamp;P1;durP1;ratioP1;P2;durP2;ratioP2
2824;SDS011;1420;51.324;12.344;2023-06-01T00:01:00;1037.22;;;961.82;;
2824;SDS011;1420;51.324;12.344;2023-06-01T00:03:29;1011.84;;;937.58;;
2824;SDS011;1420;51.324;12.344;2023-06-01T00:05:55;1060.48;;;983.04;;
2824;SDS011;1420;51.324;12.344;2023-06-01T00:08:23;1022.68;;;947.80;;
2824;SDS011;1420;51.324;12.344;2023-06-01T00:10:50;1072.40;;;995.94;;
2824;SDS011;1420;51.324;12.344;2023-06-01T00:13:17;1024.38;;;952.86;;
2824;SDS011;1420;51.324;12.344;2023-06-01T00:15:44;1002.60;;;935.60;;
2824;SDS011;1420;51.324;12.344;2023-06-01T00:18:11;1018.40;;;946.60;;
2824;SDS011;1420;51.324;12.344;2023-06-01T00:20:39;1017.90;;;945.74;;
2824;SDS011;1420;51.324;12.344;2023-06-01T00:23:07;1036.38;;;959.88;;
2824;SDS011;1420;51.324;12.344;2023-06-01T00:25:34;1017.90;;;946.30;;
2824;SDS011;1420;51.324;12.344;2023-06-01T00:28:01;1015.88;;;938.88;;
2824;SDS011;1420;51.324;12.344;2023-06-01T00:30:28;997.34;;;926.66;;
2824;SDS011;1420;51.324;12.344;2023-06-01T00:32:56;1058.08;;;980.96;;
2824;SDS011;1420;51.324;12.344;2023-06-01T00:35:23;1051.24;;;971.04;;
2824;SDS011;1420;51.324;12.344;2023-06-01T00:37:51;994.10;;;921.90;;
2824;SDS011;1420;51.324;12.344;2023-06-01T00:40:19;959.92;;;893.34;;
2824;SDS011;1420;51.324;12.344;2023-06-01T00:42:46;968.20;;;897.78;;
2824;SDS011;1420;51.324;12.344;2023-06-01T00:45:13;930.36;;;867.66;;
2824;SDS011;1420;51.324;12.344;2023-06-01T00:47:41;936.62;;;865.16;;
2824;SDS011;1420;51.324;12.344;2023-06-01T00:50:09;852.14;;;792.64;;
2824;SDS011;1420;51.324;12.344;2023-06-01T00:52:36;890.06;;;826.40;;
2824;SDS011;1420;51.324;12.344;2023-06-01T00:55:04;917.38;;;856.68;;
2824;SDS011;1420;51.324;12.344;2023-06-01T00:57:31;867.62;;;810.78;;
2824;SDS011;1420;51.324;12.344;2023-06-01T00:59:58;897.86;;;839.40;;
2824;SDS011;1420;51.324;12.344;2023-06-01T01:02:25;908.80;;;849.76;;
2824;SDS011;1420;51.324;12.344;2023-06-01T01:04:53;944.16;;;881.98;;
2824;SDS011;1420;51.324;12.344;2023-06-01T01:07:22;966.88;;;902.68;;
2824;SDS011;1420;51.324;12.344;2023-06-01T01:09:49;1009.32;;;940.12;;
2824;SDS011;1420;51.324;12.344;2023-06-01T01:12:21;997.16;;;922.92;;
2824;SDS011;1420;51.324;12.344;2023-06-01T01:14:50;899.72;;;843.48;;
2824;SDS011;1420;51.324;12.344;2023-06-01T01:17:17;948.54;;;887.06;;
2824;SDS011;1420;51.324;12.344;2023-06-01T01:19:50;960.72;;;897.88;;
2824;SDS011;1420;51.324;12.344;2023-06-01T01:22:24;981.32;;;915.08;;
2824;SDS011;1420;51.324;12.344;2023-06-01T01:27:38;920.82;;;859.00;;
2824;SDS011;1420;51.324;12.344;2023-06-01T01:30:06;949.60;;;890.28;;
2824;SDS011;1420;51.324;12.344;2023-06-01T01:32:33;932.20;;;871.94;;
2824;SDS011;1420;51.324;12.344;2023-06-01T01:35:00;988.18;;;921.92;;
2824;SDS011;1420;51.324;12.344;2023-06-01T01:37:27;931.26;;;866.52;;
2824;SDS011;1420;51.324;12.344;2023-06-01T01:39:55;951.82;;;885.04;;
2824;SDS011;1420;51.324;12.344;2023-06-01T01:42:22;992.66;;;925.94;;
2824;SDS011;1420;51.324;12.344;2023-06-01T01:44:49;978.50;;;913.00;;
2824;SDS011;1420;51.324;12.344;2023-06-01T01:47:25;910.10;;;853.52;;
2824;SDS011;1420;51.324;12.344;2023-06-01T01:49:53;950.86;;;885.50;;
2824;SDS011;1420;51.324;12.344;2023-06-01T01:52:20;940.14;;;878.26;;
2824;SDS011;1420;51.324;12.344;2023-06-01T01:54:46;927.38;;;864.44;;
2824;SDS011;1420;51.324;12.344;2023-06-01T01:57:13;1005.22;;;928.18;;
2824;SDS011;1420;51.324;12.344;2023-06-01T01:59:40;892.10;;;837.70;;
2824;SDS011;1420;51.324;12.344;2023-06-01T02:02:07;945.10;;;877.40;;
2824;SDS011;1420;51.324;12.344;2023-06-01T02:04:44;963.02;;;898.56;;
2824;SDS011;1420;51.324;12.344;2023-06-01T02:07:13;913.60;;;853.82;;
2824;SDS011;1420;51.324;12.344;2023-06-01T02:09:40;942.44;;;879.86;;
2824;SDS011;1420;51.324;12.344;2023-06-01T02:12:07;884.72;;;827.68;;
2824;SDS011;1420;51.324;12.344;2023-06-01T02:14:34;918.94;;;858.78;;
2824;SDS011;1420;51.324;12.344;2023-06-01T02:17:02;933.42;;;874.72;;
2824;SDS011;1420;51.324;12.344;2023-06-01T02:19:29;958.32;;;893.76;;
2824;SDS011;1420;51.324;12.344;2023-06-01T02:21:56;939.34;;;876.16;;
2824;SDS011;1420;51.324;12.344;2023-06-01T02:24:24;931.32;;;868.48;;
2824;SDS011;1420;51.324;12.344;2023-06-01T02:26:51;897.02;;;841.42;;
2824;SDS011;1420;51.324;12.344;2023-06-01T02:29:19;892.42;;;836.40;;
2824;SDS011;1420;51.324;12.344;2023-06-01T02:31:46;890.92;;;834.46;;
2824;SDS011;1420;51.324;12.344;2023-06-01T02:34:14;918.72;;;858.52;;
2824;SDS011;1420;51.324;12.344;2023-06-01T02:36:42;966.74;;;895.94;;
2824;SDS011;1420;51.324;12.344;2023-06-01T02:39:09;906.10;;;848.66;;
2824;SDS011;1420;51.324;12.344;2023-06-01T02:41:36;867.96;;;812.80;;
2824;SDS011;1420;51.324;12.344;2023-06-01T02:44:04;824.28;;;772.96;;
2824;SDS011;1420;51.324;12.344;2023-06-01T02:46:31;858.36;;;800.96;;
2824;SDS011;1420;51.324;12.344;2023-06-01T02:48:58;974.40;;;910.52;;
2824;SDS011;1420;51.324;12.344;2023-06-01T02:51:25;978.26;;;906.16;;
2824;SDS011;1420;51.324;12.344;2023-06-01T02:53:53;935.18;;;870.96;;
2824;SDS011;1420;51.324;12.344;2023-06-01T02:56:20;862.02;;;807.28;;
2824;SDS011;1420;51.324;12.344;2023-06-01T02:58:48;909.92;;;847.58;;
2824;SDS011;1420;51.324;12.344;2023-06-01T03:01:15;867.80;;;813.60;;
2824;SDS011;1420;51.324;12.344;2023-06-01T03:03:42;882.90;;;826.60;;
2824;SDS011;1420;51.324;12.344;2023-06-01T03:06:09;814.36;;;764.64;;
2824;SDS011;1420;51.324;12.344;2023-06-01T03:08:36;867.34;;;813.38;;
2824;SDS011;1420;51.324;12.344;2023-06-01T03:11:04;846.44;;;791.38;;
2824;SDS011;1420;51.324;12.344;2023-06-01T03:13:31;835.50;;;782.34;;
2824;SDS011;1420;51.324;12.344;2023-06-01T03:15:58;880.44;;;818.66;;
2824;SDS011;1420;51.324;12.344;2023-06-01T03:18:25;847.48;;;791.58;;
2824;SDS011;1420;51.324;12.344;2023-06-01T03:20:53;803.06;;;754.46;;
2824;SDS011;1420;51.324;12.344;2023-06-01T03:23:20;779.28;;;733.44;;
2824;SDS011;1420;51.324;12.344;2023-06-01T03:25:48;822.76;;;769.16;;
2824;SDS011;1420;51.324;12.344;2023-06-01T03:28:15;919.04;;;858.84;;
2824;SDS011;1420;51.324;12.344;2023-06-01T03:30:43;786.72;;;738.72;;
2824;SDS011;1420;51.324;12.344;2023-06-01T03:33:11;740.92;;;690.88;;
2824;SDS011;1420;51.324;12.344;2023-06-01T03:35:38;778.14;;;726.60;;
2824;SDS011;1420;51.324;12.344;2023-06-01T03:38:05;788.66;;;734.58;;
2824;SDS011;1420;51.324;12.344;2023-06-01T03:40:33;723.48;;;673.48;;
2824;SDS011;1420;51.324;12.344;2023-06-01T03:43:00;705.72;;;660.78;;
2824;SDS011;1420;51.324;12.344;2023-06-01T03:45:28;732.16;;;688.08;;
2824;SDS011;1420;51.324;12.344;2023-06-01T03:47:55;763.94;;;717.62;;
2824;SDS011;1420;51.324;12.344;2023-06-01T03:50:23;799.18;;;744.56;;
2824;SDS011;1420;51.324;12.344;2023-06-01T03:52:50;790.18;;;735.12;;
2824;SDS011;1420;51.324;12.344;2023-06-01T03:55:17;825.24;;;769.54;;
2824;SDS011;1420;51.324;12.344;2023-06-01T03:57:45;737.80;;;684.18;;
2824;SDS011;1420;51.324;12.344;2023-06-01T04:00:12;580.96;;;543.08;;
2824;SDS011;1420;51.324;12.344;2023-06-01T04:02:48;701.90;;;659.70;;
2824;SDS011;1420;51.324;12.344;2023-06-01T04:05:15;684.04;;;644.22;;
2824;SDS011;1420;51.324;12.344;2023-06-01T04:07:44;746.64;;;694.70;;
2824;SDS011;1420;51.324;12.344;2023-06-01T04:10:10;746.04;;;698.74;;
2824;SDS011;1420;51.324;12.344;2023-06-01T04:12:37;656.04;;;616.56;;
2824;SDS011;1420;51.324;12.344;2023-06-01T04:15:05;749.26;;;696.42;;
2824;SDS011;1420;51.324;12.344;2023-06-01T04:17:35;792.38;;;738.68;;
2824;SDS011;1420;51.324;12.344;2023-06-01T04:20:02;851.44;;;791.60;;
2824;SDS011;1420;51.324;12.344;2023-06-01T04:22:30;700.10;;;656.62;;
2824;SDS011;1420;51.324;12.344;2023-06-01T04:24:57;777.02;;;727.14;;
2824;SDS011;1420;51.324;12.344;2023-06-01T04:27:25;692.24;;;653.02;;
2824;SDS011;1420;51.324;12.344;2023-06-01T04:29:52;731.32;;;682.80;;
2824;SDS011;1420;51.324;12.344;2023-06-01T04:32:20;967.40;;;884.50;;
2824;SDS011;1420;51.324;12.344;2023-06-01T04:34:48;809.68;;;753.12;;
2824;SDS011;1420;51.324;12.344;2023-06-01T04:37:15;671.16;;;627.82;;
2824;SDS011;1420;51.324;12.344;2023-06-01T04:39:42;714.76;;;663.68;;
2824;SDS011;1420;51.324;12.344;2023-06-01T04:42:10;827.86;;;754.30;;
2824;SDS011;1420;51.324;12.344;2023-06-01T04:44:37;689.76;;;645.90;;
2824;SDS011;1420;51.324;12.344;2023-06-01T04:47:04;737.36;;;681.38;;
2824;SDS011;1420;51.324;12.344;2023-06-01T04:49:31;786.20;;;732.62;;
2824;SDS011;1420;51.324;12.344;2023-06-01T04:51:59;731.08;;;674.72;;
2824;SDS011;1420;51.324;12.344;2023-06-01T04:54:27;921.14;;;808.20;;
2824;SDS011;1420;51.324;12.344;2023-06-01T04:56:54;594.40;;;559.42;;
2824;SDS011;1420;51.324;12.344;2023-06-01T04:59:22;715.12;;;666.32;;
2824;SDS011;1420;51.324;12.344;2023-06-01T05:01:49;695.64;;;649.80;;
2824;SDS011;1420;51.324;12.344;2023-06-01T05:04:17;777.38;;;703.88;;
2824;SDS011;1420;51.324;12.344;2023-06-01T05:06:44;838.98;;;750.86;;
2824;SDS011;1420;51.324;12.344;2023-06-01T05:09:12;757.88;;;705.80;;
2824;SDS011;1420;51.324;12.344;2023-06-01T05:11:39;1125.04;;;906.64;;
2824;SDS011;1420;51.324;12.344;2023-06-01T05:14:06;688.74;;;635.50;;
2824;SDS011;1420;51.324;12.344;2023-06-01T05:16:34;619.44;;;578.34;;
2824;SDS011;1420;51.324;12.344;2023-06-01T05:19:02;540.32;;;510.34;;
2824;SDS011;1420;51.324;12.344;2023-06-01T05:21:29;1927.14;;;985.46;;
2824;SDS011;1420;51.324;12.344;2023-06-01T05:23:56;738.14;;;682.78;;
2824;SDS011;1420;51.324;12.344;2023-06-01T05:26:23;1189.80;;;944.70;;
2824;SDS011;1420;51.324;12.344;2023-06-01T05:28:51;801.66;;;726.06;;
2824;SDS011;1420;51.324;12.344;2023-06-01T05:31:18;722.20;;;664.40;;
2824;SDS011;1420;51.324;12.344;2023-06-01T05:33:45;754.98;;;685.66;;
2824;SDS011;1420;51.324;12.344;2023-06-01T05:36:12;805.42;;;736.88;;
2824;SDS011;1420;51.324;12.344;2023-06-01T05:38:39;807.66;;;728.58;;
2824;SDS011;1420;51.324;12.344;2023-06-01T05:41:07;629.24;;;590.20;;
2824;SDS011;1420;51.324;12.344;2023-06-01T05:43:35;799.80;;;731.00;;
2824;SDS011;1420;51.324;12.344;2023-06-01T05:46:02;534.86;;;499.90;;
2824;SDS011;1420;51.324;12.344;2023-06-01T05:48:29;566.28;;;532.18;;
2824;SDS011;1420;51.324;12.344;2023-06-01T05:50:56;822.88;;;760.82;;
2824;SDS011;1420;51.324;12.344;2023-06-01T05:53:24;940.66;;;850.88;;
2824;SDS011;1420;51.324;12.344;2023-06-01T05:55:52;802.36;;;747.34;;
2824;SDS011;1420;51.324;12.344;2023-06-01T05:58:20;695.66;;;642.00;;
2824;SDS011;1420;51.324;12.344;2023-06-01T06:00:47;668.04;;;630.16;;
2824;SDS011;1420;51.324;12.344;2023-06-01T06:03:14;687.96;;;640.26;;
2824;SDS011;1420;51.324;12.344;2023-06-01T06:05:42;519.98;;;492.34;;
2824;SDS011;1420;51.324;12.344;2023-06-01T06:08:09;493.86;;;468.22;;
2824;SDS011;1420;51.324;12.344;2023-06-01T06:10:36;582.44;;;551.72;;
2824;SDS011;1420;51.324;12.344;2023-06-01T06:13:04;599.16;;;568.04;;
2824;SDS011;1420;51.324;12.344;2023-06-01T06:15:32;653.14;;;616.82;;
2824;SDS011;1420;51.324;12.344;2023-06-01T06:18:00;637.64;;;601.14;;
2824;SDS011;1420;51.324;12.344;2023-06-01T06:20:27;681.26;;;643.34;;
2824;SDS011;1420;51.324;12.344;2023-06-01T06:22:54;709.58;;;669.40;;
2824;SDS011;1420;51.324;12.344;2023-06-01T06:25:21;777.94;;;733.34;;
2824;SDS011;1420;51.324;12.344;2023-06-01T06:27:49;888.52;;;834.48;;
2824;SDS011;1420;51.324;12.344;2023-06-01T06:30:16;970.00;;;903.56;;
2824;SDS011;1420;51.324;12.344;2023-06-01T06:32:44;926.30;;;867.12;;
2824;SDS011;1420;51.324;12.344;2023-06-01T06:35:11;824.18;;;775.38;;
2824;SDS011;1420;51.324;12.344;2023-06-01T06:37:39;803.00;;;753.26;;
2824;SDS011;1420;51.324;12.344;2023-06-01T06:40:07;802.42;;;754.12;;
2824;SDS011;1420;51.324;12.344;2023-06-01T06:42:35;834.98;;;784.98;;
2824;SDS011;1420;51.324;12.344;2023-06-01T06:45:02;908.36;;;852.32;;
2824;SDS011;1420;51.324;12.344;2023-06-01T06:47:29;928.82;;;869.24;;
2824;SDS011;1420;51.324;12.344;2023-06-01T06:49:57;877.88;;;823.96;;
2824;SDS011;1420;51.324;12.344;2023-06-01T06:52:24;947.52;;;885.86;;
2824;SDS011;1420;51.324;12.344;2023-06-01T06:54:52;952.90;;;890.62;;
2824;SDS011;1420;51.324;12.344;2023-06-01T06:57:19;1025.42;;;954.68;;
2824;SDS011;1420;51.324;12.344;2023-06-01T06:59:46;971.72;;;907.52;;
2824;SDS011;1420;51.324;12.344;2023-06-01T07:02:13;952.52;;;888.48;;
2824;SDS011;1420;51.324;12.344;2023-06-01T07:04:41;1011.66;;;942.42;;
2824;SDS011;1420;51.324;12.344;2023-06-01T07:07:09;1033.32;;;962.88;;
2824;SDS011;1420;51.324;12.344;2023-06-01T07:09:36;1007.98;;;939.60;;
2824;SDS011;1420;51.324;12.344;2023-06-01T07:12:03;1018.70;;;950.10;;
2824;SDS011;1420;51.324;12.344;2023-06-01T07:14:30;1027.30;;;957.24;;
2824;SDS011;1420;51.324;12.344;2023-06-01T07:16:58;992.58;;;924.56;;
2824;SDS011;1420;51.324;12.344;2023-06-01T07:19:26;984.08;;;916.94;;
2824;SDS011;1420;51.324;12.344;2023-06-01T07:21:54;999.20;;;929.24;;
2824;SDS011;1420;51.324;12.344;2023-06-01T07:24:21;1019.30;;;947.70;;
2824;SDS011;1420;51.324;12.344;2023-06-01T07:26:48;990.76;;;922.00;;
2824;SDS011;1420;51.324;12.344;2023-06-01T07:29:15;1009.28;;;940.86;;
2824;SDS011;1420;51.324;12.344;2023-06-01T07:31:43;977.78;;;911.30;;
2824;SDS011;1420;51.324;12.344;2023-06-01T07:34:11;982.42;;;914.38;;
2824;SDS011;1420;51.324;12.344;2023-06-01T07:36:38;1023.20;;;952.52;;
2824;SDS011;1420;51.324;12.344;2023-06-01T07:39:05;1038.52;;;966.04;;
2824;SDS011;1420;51.324;12.344;2023-06-01T07:41:34;1028.04;;;957.18;;
2824;SDS011;1420;51.324;12.344;2023-06-01T07:44:02;1033.04;;;961.24;;
2824;SDS011;1420;51.324;12.344;2023-06-01T07:46:29;1042.80;;;966.34;;
2824;SDS011;1420;51.324;12.344;2023-06-01T07:48:56;1009.72;;;938.52;;
2824;SDS011;1420;51.324;12.344;2023-06-01T07:51:24;979.86;;;910.80;;
2824;SDS011;1420;51.324;12.344;2023-06-01T07:53:51;1012.62;;;941.84;;
2824;SDS011;1420;51.324;12.344;2023-06-01T07:56:18;1018.50;;;948.34;;
2824;SDS011;1420;51.324;12.344;2023-06-01T07:58:45;1001.56;;;932.38;;
2824;SDS011;1420;51.324;12.344;2023-06-01T08:01:12;1006.82;;;937.48;;
2824;SDS011;1420;51.324;12.344;2023-06-01T08:03:42;1067.08;;;988.70;;
2824;SDS011;1420;51.324;12.344;2023-06-01T08:06:10;1062.86;;;983.56;;
2824;SDS011;1420;51.324;12.344;2023-06-01T08:08:37;1063.08;;;980.46;;
2824;SDS011;1420;51.324;12.344;2023-06-01T08:11:04;1061.80;;;984.34;;
2824;SDS011;1420;51.324;12.344;2023-06-01T08:13:33;1031.10;;;958.48;;
2824;SDS011;1420;51.324;12.344;2023-06-01T08:16:00;1045.64;;;972.38;;
2824;SDS011;1420;51.324;12.344;2023-06-01T08:18:27;1062.96;;;984.38;;
2824;SDS011;1420;51.324;12.344;2023-06-01T08:20:55;1078.68;;;997.78;;
2824;SDS011;1420;51.324;12.344;2023-06-01T08:23:22;1103.58;;;999.90;;
2824;SDS011;1420;51.324;12.344;2023-06-01T08:25:49;1135.56;;;999.90;;
2824;SDS011;1420;51.324;12.344;2023-06-01T08:28:16;1126.62;;;999.90;;
2824;SDS011;1420;51.324;12.344;2023-06-01T08:30:44;1111.46;;;999.90;;
2824;SDS011;1420;51.324;12.344;2023-06-01T08:33:11;1087.84;;;999.46;;
2824;SDS011;1420;51.324;12.344;2023-06-01T08:35:38;1103.36;;;999.90;;
2824;SDS011;1420;51.324;12.344;2023-06-01T08:38:06;1081.58;;;998.22;;
2824;SDS011;1420;51.324;12.344;2023-06-01T08:40:34;1054.20;;;976.70;;
2824;SDS011;1420;51.324;12.344;2023-06-01T08:43:04;1063.86;;;984.58;;
2824;SDS011;1420;51.324;12.344;2023-06-01T08:45:46;1079.66;;;995.88;;
2824;SDS011;1420;51.324;12.344;2023-06-01T08:48:19;1153.90;;;999.90;;
2824;SDS011;1420;51.324;12.344;2023-06-01T08:50:48;1124.92;;;999.90;;
2824;SDS011;1420;51.324;12.344;2023-06-01T08:53:18;1422.76;;;999.90;;
2824;SDS011;1420;51.324;12.344;2023-06-01T08:55:45;1109.44;;;999.90;;
2824;SDS011;1420;51.324;12.344;2023-06-01T08:58:13;1111.72;;;999.90;;
2824;SDS011;1420;51.324;12.344;2023-06-01T09:00:40;1098.80;;;999.90;;
2824;SDS011;1420;51.324;12.344;2023-06-01T09:03:07;1076.28;;;994.18;;
2824;SDS011;1420;51.324;12.344;2023-06-01T09:05:34;1062.78;;;983.72;;
2824;SDS011;1420;51.324;12.344;2023-06-01T09:08:02;1144.10;;;999.90;;
2824;SDS011;1420;51.324;12.344;2023-06-01T09:10:29;1112.78;;;999.90;;
2824;SDS011;1420;51.324;12.344;2023-06-01T09:12:56;1067.40;;;988.84;;
2824;SDS011;1420;51.324;12.344;2023-06-01T09:15:23;1056.10;;;974.78;;
2824;SDS011;1420;51.324;12.344;2023-06-01T09:17:51;1115.68;;;999.90;;
2824;SDS011;1420;51.324;12.344;2023-06-01T09:20:23;1126.18;;;999.90;;
2824;SDS011;1420;51.324;12.344;2023-06-01T09:22:50;1150.92;;;999.90;;
2824;SDS011;1420;51.324;12.344;2023-06-01T09:25:17;1156.06;;;999.90;;
2824;SDS011;1420;51.324;12.344;2023-06-01T09:27:46;1163.22;;;999.90;;
2824;SDS011;1420;51.324;12.344;2023-06-01T09:30:13;1132.74;;;999.90;;
2824;SDS011;1420;51.324;12.344;2023-06-01T09:32:40;1130.64;;;999.90;;
2824;SDS011;1420;51.324;12.344;2023-06-01T09:35:07;1147.44;;;999.90;;
2824;SDS011;1420;51.324;12.344;2023-06-01T09:37:36;1130.74;;;999.90;;
2824;SDS011;1420;51.324;12.344;2023-06-01T09:40:02;1147.34;;;999.90;;
2824;SDS011;1420;51.324;12.344;2023-06-01T09:42:32;1135.80;;;999.90;;
2824;SDS011;1420;51.324;12.344;2023-06-01T09:47:37;1074.26;;;994.42;;
2824;SDS011;1420;51.324;12.344;2023-06-01T09:50:05;1072.50;;;993.22;;
2824;SDS011;1420;51.324;12.344;2023-06-01T09:52:32;1111.38;;;999.90;;
2824;SDS011;1420;51.324;12.344;2023-06-01T09:55:07;1114.20;;;999.90;;
2824;SDS011;1420;51.324;12.344;2023-06-01T09:57:35;1167.22;;;999.90;;
2824;SDS011;1420;51.324;12.344;2023-06-01T10:00:02;1156.28;;;999.90;;
2824;SDS011;1420;51.324;12.344;2023-06-01T10:02:30;1138.96;;;999.90;;
2824;SDS011;1420;51.324;12.344;2023-06-01T10:04:58;1112.64;;;999.90;;
2824;SDS011;1420;51.324;12.344;2023-06-01T10:07:28;1095.68;;;999.90;;
2824;SDS011;1420;51.324;12.344;2023-06-01T10:09:55;1073.26;;;992.18;;
2824;SDS011;1420;51.324;12.344;2023-06-01T10:12:22;1070.76;;;991.54;;
2824;SDS011;1420;51.324;12.344;2023-06-01T10:14:49;1025.50;;;952.28;;
2824;SDS011;1420;51.324;12.344;2023-06-01T10:17:17;1053.58;;;978.24;;
2824;SDS011;1420;51.324;12.344;2023-06-01T10:19:44;1018.58;;;947.42;;
2824;SDS011;1420;51.324;12.344;2023-06-01T10:22:11;1008.58;;;939.02;;
2824;SDS011;1420;51.324;12.344;2023-06-01T10:24:38;1032.24;;;960.24;;
2824;SDS011;1420;51.324;12.344;2023-06-01T10:27:38;1059.56;;;984.16;;
2824;SDS011;1420;51.324;12.344;2023-06-01T10:29:49;1023.50;;;953.30;;
2824;SDS011;1420;51.324;12.344;2023-06-01T10:34:56;1153.30;;;999.90;;
2824;SDS011;1420;51.324;12.344;2023-06-01T10:37:23;1142.94;;;999.90;;
2824;SDS011;1420;51.324;12.344;2023-06-01T10:39:51;1131.96;;;999.90;;
2824;SDS011;1420;51.324;12.344;2023-06-01T10:45:01;1092.70;;;998.84;;
2824;SDS011;1420;51.324;12.344;2023-06-01T10:47:47;1126.28;;;999.90;;
2824;SDS011;1420;51.324;12.344;2023-06-01T10:50:14;1114.48;;;999.90;;
2824;SDS011;1420;51.324;12.344;2023-06-01T10:52:42;1095.58;;;999.90;;
2824;SDS011;1420;51.324;12.344;2023-06-01T10:58:18;1096.88;;;999.90;;
2824;SDS011;1420;51.324;12.344;2023-06-01T11:00:26;1069.76;;;989.00;;
2824;SDS011;1420;51.324;12.344;2023-06-01T11:02:55;1090.26;;;999.90;;
2824;SDS011;1420;51.324;12.344;2023-06-01T11:08:00;1111.38;;;999.90;;
2824;SDS011;1420;51.324;12.344;2023-06-01T11:13:10;1088.10;;;999.90;;
2824;SDS011;1420;51.324;12.344;2023-06-01T11:15:37;1081.84;;;996.92;;
2824;SDS011;1420;51.324;12.344;2023-06-01T11:20:43;1117.92;;;999.90;;
2824;SDS011;1420;51.324;12.344;2023-06-01T11:23:11;1149.86;;;999.90;;
2824;SDS011;1420;51.324;12.344;2023-06-01T11:25:39;1125.68;;;999.90;;
2824;SDS011;1420;51.324;12.344;2023-06-01T11:28:06;1130.08;;;999.90;;
2824;SDS011;1420;51.324;12.344;2023-06-01T11:30:35;1155.54;;;999.90;;
2824;SDS011;1420;51.324;12.344;2023-06-01T11:33:02;1098.08;;;999.90;;
2824;SDS011;1420;51.324;12.344;2023-06-01T11:35:30;1128.38;;;999.90;;
2824;SDS011;1420;51.324;12.344;2023-06-01T11:37:57;1113.88;;;999.90;;
2824;SDS011;1420;51.324;12.344;2023-06-01T11:40:24;1136.98;;;999.90;;
2824;SDS011;1420;51.324;12.344;2023-06-01T11:42:51;1133.32;;;999.90;;
2824;SDS011;1420;51.324;12.344;2023-06-01T11:45:18;1157.58;;;999.90;;
2824;SDS011;1420;51.324;12.344;2023-06-01T11:47:46;1118.14;;;999.90;;
2824;SDS011;1420;51.324;12.344;2023-06-01T11:50:19;1105.74;;;999.90;;
2824;SDS011;1420;51.324;12.344;2023-06-01T11:52:46;1122.04;;;999.90;;
2824;SDS011;1420;51.324;12.344;2023-06-01T11:55:13;1099.00;;;984.46;;
2824;SDS011;1420;51.324;12.344;2023-06-01T11:57:42;1096.72;;;999.90;;
2824;SDS011;1420;51.324;12.344;2023-06-01T12:00:10;1100.82;;;999.64;;
2824;SDS011;1420;51.324;12.344;2023-06-01T12:02:39;1198.96;;;999.90;;
2824;SDS011;1420;51.324;12.344;2023-06-01T12:05:06;1111.16;;;999.90;;
2824;SDS011;1420;51.324;12.344;2023-06-01T12:07:49;1113.54;;;999.90;;
2824;SDS011;1420;51.324;12.344;2023-06-01T12:10:17;1094.28;;;995.64;;
2824;SDS011;1420;51.324;12.344;2023-06-01T12:12:44;1145.58;;;999.90;;
2824;SDS011;1420;51.324;12.344;2023-06-01T12:15:13;1126.46;;;999.90;;
2824;SDS011;1420;51.324;12.344;2023-06-01T12:20:12;1104.98;;;999.90;;
2824;SDS011;1420;51.324;12.344;2023-06-01T12:22:40;1146.56;;;999.90;;
2824;SDS011;1420;51.324;12.344;2023-06-01T12:25:09;1184.68;;;999.90;;
2824;SDS011;1420;51.324;12.344;2023-06-01T12:27:36;1142.76;;;999.90;;
2824;SDS011;1420;51.324;12.344;2023-06-01T12:30:03;1130.92;;;999.90;;
2824;SDS011;1420;51.324;12.344;2023-06-01T12:32:37;1117.28;;;999.90;;
2824;SDS011;1420;51.324;12.344;2023-06-01T12:35:05;1137.10;;;999.90;;
2824;SDS011;1420;51.324;12.344;2023-06-01T12:40:08;1114.68;;;999.90;;
2824;SDS011;1420;51.324;12.344;2023-06-01T12:42:38;1094.16;;;990.80;;
2824;SDS011;1420;51.324;12.344;2023-06-01T12:45:05;1131.46;;;999.90;;
2824;SDS011;1420;51.324;12.344;2023-06-01T12:47:35;1142.04;;;999.90;;
2824;SDS011;1420;51.324;12.344;2023-06-01T12:50:05;1144.08;;;999.90;;
2824;SDS011;1420;51.324;12.344;2023-06-01T12:52:35;1102.16;;;999.90;;
2824;SDS011;1420;51.324;12.344;2023-06-01T12:55:02;1135.64;;;999.90;;
2824;SDS011;1420;51.324;12.344;2023-06-01T12:57:29;1093.60;;;997.14;;
2824;SDS011;1420;51.324;12.344;2023-06-01T12:59:57;1124.84;;;999.90;;
2824;SDS011;1420;51.324;12.344;2023-06-01T13:02:24;1133.48;;;999.90;;
2824;SDS011;1420;51.324;12.344;2023-06-01T13:04:51;1104.86;;;999.90;;
2824;SDS011;1420;51.324;12.344;2023-06-01T13:07:19;1115.92;;;999.90;;
2824;SDS011;1420;51.324;12.344;2023-06-01T13:09:49;1125.44;;;999.90;;
2824;SDS011;1420;51.324;12.344;2023-06-01T13:12:16;1112.48;;;999.90;;
2824;SDS011;1420;51.324;12.344;2023-06-01T13:14:43;1139.24;;;999.90;;
2824;SDS011;1420;51.324;12.344;2023-06-01T13:17:11;1096.30;;;999.20;;
2824;SDS011;1420;51.324;12.344;2023-06-01T13:19:38;1174.64;;;999.90;;
2824;SDS011;1420;51.324;12.344;2023-06-01T13:22:05;1117.46;;;999.90;;
2824;SDS011;1420;51.324;12.344;2023-06-01T13:24:32;1135.88;;;999.90;;
2824;SDS011;1420;51.324;12.344;2023-06-01T13:27:00;1109.32;;;999.90;;
2824;SDS011;1420;51.324;12.344;2023-06-01T13:29:27;1110.54;;;999.90;;
2824;SDS011;1420;51.324;12.344;2023-06-01T13:31:54;1132.86;;;999.90;;
2824;SDS011;1420;51.324;12.344;2023-06-01T13:34:22;1119.72;;;999.90;;
2824;SDS011;1420;51.324;12.344;2023-06-01T13:36:49;1100.80;;;999.90;;
2824;SDS011;1420;51.324;12.344;2023-06-01T13:39:16;1102.58;;;999.90;;
2824;SDS011;1420;51.324;12.344;2023-06-01T13:41:44;1091.26;;;993.50;;
2824;SDS011;1420;51.324;12.344;2023-06-01T13:44:11;1239.08;;;999.90;;
2824;SDS011;1420;51.324;12.344;2023-06-01T13:46:38;1088.92;;;998.58;;
2824;SDS011;1420;51.324;12.344;2023-06-01T13:49:05;1217.88;;;999.90;;
2824;SDS011;1420;51.324;12.344;2023-06-01T13:51:33;1116.30;;;999.90;;
2824;SDS011;1420;51.324;12.344;2023-06-01T13:54:00;1111.10;;;999.90;;
2824;SDS011;1420;51.324;12.344;2023-06-01T13:56:28;1090.04;;;997.74;;
2824;SDS011;1420;51.324;12.344;2023-06-01T13:58:55;1093.04;;;998.94;;
2824;SDS011;1420;51.324;12.344;2023-06-01T14:01:22;1170.94;;;999.90;;
2824;SDS011;1420;51.324;12.344;2023-06-01T14:03:49;1157.52;;;999.90;;
2824;SDS011;1420;51.324;12.344;2023-06-01T14:06:17;1101.98;;;999.90;;
2824;SDS011;1420;51.324;12.344;2023-06-01T14:08:45;1102.34;;;999.90;;
2824;SDS011;1420;51.324;12.344;2023-06-01T14:11:12;1113.50;;;999.90;;
2824;SDS011;1420;51.324;12.344;2023-06-01T14:13:39;1396.46;;;999.90;;
2824;SDS011;1420;51.324;12.344;2023-06-01T14:16:06;1094.22;;;999.90;;
2824;SDS011;1420;51.324;12.344;2023-06-01T14:18:33;1097.60;;;994.62;;
2824;SDS011;1420;51.324;12.344;2023-06-01T14:21:01;1078.98;;;993.12;;
2824;SDS011;1420;51.324;12.344;2023-06-01T14:23:28;1090.74;;;999.90;;
2824;SDS011;1420;51.324;12.344;2023-06-01T14:25:56;1090.50;;;997.34;;
2824;SDS011;1420;51.324;12.344;2023-06-01T14:28:23;1106.34;;;999.90;;
2824;SDS011;1420;51.324;12.344;2023-06-01T14:30:50;1095.12;;;994.22;;